sensor_id;sensor_type;location;lat;lon;timestamp;temperature;humidity
6752;DHT22;3413;47.680;9.166;2023-04-26T00:00:00;12.30;89.40
6752;DHT22;3413;47.680;9.166;2023-04-26T00:05:02;12.20;89.50
6752;DHT22;3413;47.680;9.166;2023-04-26T00:10:05;12.20;89.40
6752;DHT22;3413;47.680;9.166;2023-04-26T00:15:08;12.20;89.40
6752;DHT22;3413;47.680;9.166;2023-04-26T00:20:10;12.20;89.50
6752;DHT22;3413;47.680;9.166;2023-04-26T00:25:14;12.20;89.50
6752;DHT22;3413;47.680;9.166;2023-04-26T00:30:16;12.20;89.50
6752;DHT22;3413;47.680;9.166;2023-04-26T00:35:18;12.20;89.50
6752;DHT22;3413;47.680;9.166;2023-04-26T00:40:21;12.20;89.40
6752;DHT22;3413;47.680;9.166;2023-04-26T00:45:23;12.10;89.20
6752;DHT22;3413;47.680;9.166;2023-04-26T00:50:25;12.00;89.20
6752;DHT22;3413;47.680;9.166;2023-04-26T00:55:27;11.90;89.20
6752;DHT22;3413;47.680;9.166;2023-04-26T01:00:29;11.80;89.10
6752;DHT22;3413;47.680;9.166;2023-04-26T01:05:31;11.60;88.90
6752;DHT22;3413;47.680;9.166;2023-04-26T01:10:34;11.50;88.90
6752;DHT22;3413;47.680;9.166;2023-04-26T01:15:36;11.50;89.00
6752;DHT22;3413;47.680;9.166;2023-04-26T01:20:39;11.40;88.80
6752;DHT22;3413;47.680;9.166;2023-04-26T01:25:42;11.40;88.80
6752;DHT22;3413;47.680;9.166;2023-04-26T01:30:44;11.40;89.40
6752;DHT22;3413;47.680;9.166;2023-04-26T01:35:46;11.40;88.80
6752;DHT22;3413;47.680;9.166;2023-04-26T01:40:48;11.40;88.90
6752;DHT22;3413;47.680;9.166;2023-04-26T01:45:50;11.30;88.90
6752;DHT22;3413;47.680;9.166;2023-04-26T01:51:04;11.40;89.00
6752;DHT22;3413;47.680;9.166;2023-04-26T01:56:07;11.40;89.10
6752;DHT22;3413;47.680;9.166;2023-04-26T02:01:11;11.40;89.10
6752;DHT22;3413;47.680;9.166;2023-04-26T02:06:13;11.50;89.10
6752;DHT22;3413;47.680;9.166;2023-04-26T02:11:15;11.50;89.10
6752;DHT22;3413;47.680;9.166;2023-04-26T02:16:17;11.50;89.20
6752;DHT22;3413;47.680;9.166;2023-04-26T02:21:20;11.60;89.40
6752;DHT22;3413;47.680;9.166;2023-04-26T02:26:22;11.60;89.40
6752;DHT22;3413;47.680;9.166;2023-04-26T02:31:24;11.60;89.40
6752;DHT22;3413;47.680;9.166;2023-04-26T02:36:26;11.60;89.50
6752;DHT22;3413;47.680;9.166;2023-04-26T02:41:31;11.60;89.60
6752;DHT22;3413;47.680;9.166;2023-04-26T02:46:33;11.60;89.50
6752;DHT22;3413;47.680;9.166;2023-04-26T02:51:36;11.60;89.40
6752;DHT22;3413;47.680;9.166;2023-04-26T02:56:38;11.50;89.30
6752;DHT22;3413;47.680;9.166;2023-04-26T03:01:39;11.50;89.30
6752;DHT22;3413;47.680;9.166;2023-04-26T03:06:42;11.40;89.20
6752;DHT22;3413;47.680;9.166;2023-04-26T03:11:44;11.20;89.10
6752;DHT22;3413;47.680;9.166;2023-04-26T03:16:48;11.20;89.20
6752;DHT22;3413;47.680;9.166;2023-04-26T03:21:50;11.20;89.00
6752;DHT22;3413;47.680;9.166;2023-04-26T03:26:52;11.20;88.90
6752;DHT22;3413;47.680;9.166;2023-04-26T03:31:55;11.10;88.90
6752;DHT22;3413;47.680;9.166;2023-04-26T03:36:57;11.00;88.90
6752;DHT22;3413;47.680;9.166;2023-04-26T03:41:59;10.90;88.80
6752;DHT22;3413;47.680;9.166;2023-04-26T03:47:01;10.90;89.00
6752;DHT22;3413;47.680;9.166;2023-04-26T03:52:06;10.80;88.90
6752;DHT22;3413;47.680;9.166;2023-04-26T03:57:09;10.80;88.90
6752;DHT22;3413;47.680;9.166;2023-04-26T04:02:11;10.70;88.80
6752;DHT22;3413;47.680;9.166;2023-04-26T04:07:14;10.70;88.80
6752;DHT22;3413;47.680;9.166;2023-04-26T04:12:17;10.70;88.90
6752;DHT22;3413;47.680;9.166;2023-04-26T04:17:19;10.70;88.90
6752;DHT22;3413;47.680;9.166;2023-04-26T04:22:21;10.70;89.00
6752;DHT22;3413;47.680;9.166;2023-04-26T04:27:23;10.70;88.90
6752;DHT22;3413;47.680;9.166;2023-04-26T04:32:26;10.70;88.90
6752;DHT22;3413;47.680;9.166;2023-04-26T04:37:28;10.60;89.00
6752;DHT22;3413;47.680;9.166;2023-04-26T04:42:30;10.60;89.60
6752;DHT22;3413;47.680;9.166;2023-04-26T04:47:34;10.60;89.10
6752;DHT22;3413;47.680;9.166;2023-04-26T04:52:38;10.60;89.10
6752;DHT22;3413;47.680;9.166;2023-04-26T04:57:40;10.50;89.00
6752;DHT22;3413;47.680;9.166;2023-04-26T05:02:50;10.40;89.00
6752;DHT22;3413;47.680;9.166;2023-04-26T05:07:52;10.50;89.10
6752;DHT22;3413;47.680;9.166;2023-04-26T05:12:55;10.60;89.10
6752;DHT22;3413;47.680;9.166;2023-04-26T05:17:57;10.70;89.40
6752;DHT22;3413;47.680;9.166;2023-04-26T05:23:00;10.70;89.40
6752;DHT22;3413;47.680;9.166;2023-04-26T05:28:02;10.80;89.80
6752;DHT22;3413;47.680;9.166;2023-04-26T05:33:11;10.90;89.90
6752;DHT22;3413;47.680;9.166;2023-04-26T05:38:21;10.90;90.00
6752;DHT22;3413;47.680;9.166;2023-04-26T05:43:26;11.10;90.00
6752;DHT22;3413;47.680;9.166;2023-04-26T05:48:28;11.20;90.10
6752;DHT22;3413;47.680;9.166;2023-04-26T05:53:31;11.20;90.20
6752;DHT22;3413;47.680;9.166;2023-04-26T05:58:35;11.30;90.30
6752;DHT22;3413;47.680;9.166;2023-04-26T06:03:38;11.40;90.30
6752;DHT22;3413;47.680;9.166;2023-04-26T06:08:42;11.50;90.40
6752;DHT22;3413;47.680;9.166;2023-04-26T06:13:45;11.60;90.30
6752;DHT22;3413;47.680;9.166;2023-04-26T06:18:48;11.60;90.40
6752;DHT22;3413;47.680;9.166;2023-04-26T06:23:51;11.60;90.40
6752;DHT22;3413;47.680;9.166;2023-04-26T06:28:55;11.60;90.50
6752;DHT22;3413;47.680;9.166;2023-04-26T06:33:57;11.70;90.50
6752;DHT22;3413;47.680;9.166;2023-04-26T06:39:00;11.80;90.70
6752;DHT22;3413;47.680;9.166;2023-04-26T06:44:02;11.80;91.00
6752;DHT22;3413;47.680;9.166;2023-04-26T06:49:05;11.90;90.80
6752;DHT22;3413;47.680;9.166;2023-04-26T06:54:07;12.10;90.90
6752;DHT22;3413;47.680;9.166;2023-04-26T06:59:09;12.10;90.90
6752;DHT22;3413;47.680;9.166;2023-04-26T07:04:11;12.20;91.10
6752;DHT22;3413;47.680;9.166;2023-04-26T07:09:17;12.20;91.10
6752;DHT22;3413;47.680;9.166;2023-04-26T07:14:19;12.30;91.20
6752;DHT22;3413;47.680;9.166;2023-04-26T07:19:21;12.40;91.30
6752;DHT22;3413;47.680;9.166;2023-04-26T07:24:24;12.50;91.30
6752;DHT22;3413;47.680;9.166;2023-04-26T07:29:26;12.60;91.30
6752;DHT22;3413;47.680;9.166;2023-04-26T07:34:28;12.80;91.40
6752;DHT22;3413;47.680;9.166;2023-04-26T07:39:30;12.80;91.40
6752;DHT22;3413;47.680;9.166;2023-04-26T07:44:32;12.80;91.40
6752;DHT22;3413;47.680;9.166;2023-04-26T07:49:35;12.80;91.40
6752;DHT22;3413;47.680;9.166;2023-04-26T07:54:37;13.00;91.50
6752;DHT22;3413;47.680;9.166;2023-04-26T07:59:41;13.10;91.60
6752;DHT22;3413;47.680;9.166;2023-04-26T08:04:51;13.30;91.60
6752;DHT22;3413;47.680;9.166;2023-04-26T08:09:56;13.40;91.70
6752;DHT22;3413;47.680;9.166;2023-04-26T08:15:01;13.50;91.70
6752;DHT22;3413;47.680;9.166;2023-04-26T08:20:03;13.50;91.70
6752;DHT22;3413;47.680;9.166;2023-04-26T08:25:11;13.50;91.80
6752;DHT22;3413;47.680;9.166;2023-04-26T08:30:13;13.60;91.70
6752;DHT22;3413;47.680;9.166;2023-04-26T08:35:15;13.60;91.80
6752;DHT22;3413;47.680;9.166;2023-04-26T08:40:22;13.80;91.80
6752;DHT22;3413;47.680;9.166;2023-04-26T08:45:27;13.90;92.00
6752;DHT22;3413;47.680;9.166;2023-04-26T08:50:30;14.10;92.00
6752;DHT22;3413;47.680;9.166;2023-04-26T08:55:35;14.20;92.10
6752;DHT22;3413;47.680;9.166;2023-04-26T09:00:37;14.40;92.20
6752;DHT22;3413;47.680;9.166;2023-04-26T09:05:40;14.70;92.30
6752;DHT22;3413;47.680;9.166;2023-04-26T09:10:45;14.80;92.30
6752;DHT22;3413;47.680;9.166;2023-04-26T09:15:48;15.00;92.40
6752;DHT22;3413;47.680;9.166;2023-04-26T09:21:05;15.10;92.50
6752;DHT22;3413;47.680;9.166;2023-04-26T09:26:15;15.20;92.50
6752;DHT22;3413;47.680;9.166;2023-04-26T09:31:38;15.30;92.50
6752;DHT22;3413;47.680;9.166;2023-04-26T09:36:54;15.30;92.40
6752;DHT22;3413;47.680;9.166;2023-04-26T09:41:59;15.40;92.50
6752;DHT22;3413;47.680;9.166;2023-04-26T09:47:09;15.50;92.60
6752;DHT22;3413;47.680;9.166;2023-04-26T09:52:11;15.70;92.70
6752;DHT22;3413;47.680;9.166;2023-04-26T09:57:15;15.90;92.80
6752;DHT22;3413;47.680;9.166;2023-04-26T10:02:20;16.20;92.90
6752;DHT22;3413;47.680;9.166;2023-04-26T10:07:25;16.20;92.80
6752;DHT22;3413;47.680;9.166;2023-04-26T10:12:27;16.30;92.70
6752;DHT22;3413;47.680;9.166;2023-04-26T10:17:30;16.40;92.80
6752;DHT22;3413;47.680;9.166;2023-04-26T10:22:42;16.40;92.70
6752;DHT22;3413;47.680;9.166;2023-04-26T10:48:20;16.70;92.40
6752;DHT22;3413;47.680;9.166;2023-04-26T10:53:24;16.80;92.30
6752;DHT22;3413;47.680;9.166;2023-04-26T10:58:30;16.90;92.30
6752;DHT22;3413;47.680;9.166;2023-04-26T11:03:33;16.90;92.30
6752;DHT22;3413;47.680;9.166;2023-04-26T11:08:36;17.00;92.40
6752;DHT22;3413;47.680;9.166;2023-04-26T11:13:40;17.00;92.30
6752;DHT22;3413;47.680;9.166;2023-04-26T11:18:45;17.00;92.40
6752;DHT22;3413;47.680;9.166;2023-04-26T11:23:53;17.20;92.30
6752;DHT22;3413;47.680;9.166;2023-04-26T11:28:56;17.50;92.10
6752;DHT22;3413;47.680;9.166;2023-04-26T11:34:04;17.70;92.10
6752;DHT22;3413;47.680;9.166;2023-04-26T11:39:06;17.80;92.00
6752;DHT22;3413;47.680;9.166;2023-04-26T11:44:10;17.90;92.00
6752;DHT22;3413;47.680;9.166;2023-04-26T11:49:13;18.00;91.90
6752;DHT22;3413;47.680;9.166;2023-04-26T11:54:33;18.10;92.00
6752;DHT22;3413;47.680;9.166;2023-04-26T11:59:36;18.30;92.00
6752;DHT22;3413;47.680;9.166;2023-04-26T12:04:39;18.50;92.10
6752;DHT22;3413;47.680;9.166;2023-04-26T12:09:42;18.80;91.90
6752;DHT22;3413;47.680;9.166;2023-04-26T12:14:46;18.80;91.80
6752;DHT22;3413;47.680;9.166;2023-04-26T12:19:49;18.80;91.80
6752;DHT22;3413;47.680;9.166;2023-04-26T12:25:03;18.90;91.70
6752;DHT22;3413;47.680;9.166;2023-04-26T12:30:07;19.00;91.60
6752;DHT22;3413;47.680;9.166;2023-04-26T12:35:09;18.90;91.60
6752;DHT22;3413;47.680;9.166;2023-04-26T12:40:11;19.00;91.40
6752;DHT22;3413;47.680;9.166;2023-04-26T12:45:14;19.10;91.20
6752;DHT22;3413;47.680;9.166;2023-04-26T12:50:17;19.10;91.20
6752;DHT22;3413;47.680;9.166;2023-04-26T12:55:19;18.90;91.00
6752;DHT22;3413;47.680;9.166;2023-04-26T13:00:22;18.80;91.00
6752;DHT22;3413;47.680;9.166;2023-04-26T13:05:24;18.80;90.90
6752;DHT22;3413;47.680;9.166;2023-04-26T13:10:26;18.80;91.20
6752;DHT22;3413;47.680;9.166;2023-04-26T13:15:28;18.90;90.90
6752;DHT22;3413;47.680;9.166;2023-04-26T13:20:31;19.00;90.80
6752;DHT22;3413;47.680;9.166;2023-04-26T13:25:33;19.10;90.90
6752;DHT22;3413;47.680;9.166;2023-04-26T13:30:35;19.20;90.90
6752;DHT22;3413;47.680;9.166;2023-04-26T13:35:37;19.10;90.90
6752;DHT22;3413;47.680;9.166;2023-04-26T13:40:39;19.10;90.80
6752;DHT22;3413;47.680;9.166;2023-04-26T13:45:41;19.10;90.70
6752;DHT22;3413;47.680;9.166;2023-04-26T13:50:43;19.20;90.70
6752;DHT22;3413;47.680;9.166;2023-04-26T13:55:45;19.20;90.70
6752;DHT22;3413;47.680;9.166;2023-04-26T14:00:47;19.20;90.50
6752;DHT22;3413;47.680;9.166;2023-04-26T14:05:49;19.20;90.30
6752;DHT22;3413;47.680;9.166;2023-04-26T14:10:52;19.10;90.20
6752;DHT22;3413;47.680;9.166;2023-04-26T14:15:54;19.10;90.10
6752;DHT22;3413;47.680;9.166;2023-04-26T14:20:58;19.10;90.10
6752;DHT22;3413;47.680;9.166;2023-04-26T14:26:00;19.10;90.10
6752;DHT22;3413;47.680;9.166;2023-04-26T14:31:02;19.20;90.00
6752;DHT22;3413;47.680;9.166;2023-04-26T14:36:04;19.10;90.00
6752;DHT22;3413;47.680;9.166;2023-04-26T14:41:06;19.10;90.10
6752;DHT22;3413;47.680;9.166;2023-04-26T14:46:08;19.30;90.10
6752;DHT22;3413;47.680;9.166;2023-04-26T14:51:10;19.30;90.00
6752;DHT22;3413;47.680;9.166;2023-04-26T14:56:13;19.30;90.00
6752;DHT22;3413;47.680;9.166;2023-04-26T15:01:15;19.40;90.00
6752;DHT22;3413;47.680;9.166;2023-04-26T15:06:17;19.40;90.00
6752;DHT22;3413;47.680;9.166;2023-04-26T15:11:19;19.40;89.80
6752;DHT22;3413;47.680;9.166;2023-04-26T15:16:21;19.50;89.80
6752;DHT22;3413;47.680;9.166;2023-04-26T15:21:24;19.40;89.50
6752;DHT22;3413;47.680;9.166;2023-04-26T15:26:26;19.40;89.50
6752;DHT22;3413;47.680;9.166;2023-04-26T15:31:31;19.40;89.40
6752;DHT22;3413;47.680;9.166;2023-04-26T15:36:34;19.50;89.40
6752;DHT22;3413;47.680;9.166;2023-04-26T15:41:37;19.50;89.10
6752;DHT22;3413;47.680;9.166;2023-04-26T15:46:39;19.60;89.10
6752;DHT22;3413;47.680;9.166;2023-04-26T15:51:42;19.60;89.20
6752;DHT22;3413;47.680;9.166;2023-04-26T15:56:44;19.60;89.50
6752;DHT22;3413;47.680;9.166;2023-04-26T16:01:49;19.60;89.20
6752;DHT22;3413;47.680;9.166;2023-04-26T16:06:51;19.70;89.10
6752;DHT22;3413;47.680;9.166;2023-04-26T16:11:53;19.50;88.70
6752;DHT22;3413;47.680;9.166;2023-04-26T16:16:56;19.40;88.30
6752;DHT22;3413;47.680;9.166;2023-04-26T16:21:59;19.00;88.00
6752;DHT22;3413;47.680;9.166;2023-04-26T16:27:01;18.80;87.50
6752;DHT22;3413;47.680;9.166;2023-04-26T16:32:03;18.50;87.30
6752;DHT22;3413;47.680;9.166;2023-04-26T16:37:05;18.40;87.30
6752;DHT22;3413;47.680;9.166;2023-04-26T16:42:08;18.20;87.20
6752;DHT22;3413;47.680;9.166;2023-04-26T16:47:10;18.20;87.20
6752;DHT22;3413;47.680;9.166;2023-04-26T16:52:12;18.20;87.00
6752;DHT22;3413;47.680;9.166;2023-04-26T16:57:14;18.20;86.90
6752;DHT22;3413;47.680;9.166;2023-04-26T17:02:16;18.30;86.80
6752;DHT22;3413;47.680;9.166;2023-04-26T17:07:18;18.30;87.40
6752;DHT22;3413;47.680;9.166;2023-04-26T17:12:20;18.30;86.80
6752;DHT22;3413;47.680;9.166;2023-04-26T17:17:22;18.30;86.60
6752;DHT22;3413;47.680;9.166;2023-04-26T17:22:24;18.30;86.60
6752;DHT22;3413;47.680;9.166;2023-04-26T17:27:26;18.30;86.70
6752;DHT22;3413;47.680;9.166;2023-04-26T17:32:28;18.30;86.70
6752;DHT22;3413;47.680;9.166;2023-04-26T17:37:30;18.20;86.50
6752;DHT22;3413;47.680;9.166;2023-04-26T17:42:32;18.20;86.40
6752;DHT22;3413;47.680;9.166;2023-04-26T17:47:34;18.20;86.40
6752;DHT22;3413;47.680;9.166;2023-04-26T17:52:37;18.10;86.30
6752;DHT22;3413;47.680;9.166;2023-04-26T17:57:39;18.10;86.30
6752;DHT22;3413;47.680;9.166;2023-04-26T18:02:41;18.20;86.40
6752;DHT22;3413;47.680;9.166;2023-04-26T18:07:44;18.10;86.30
6752;DHT22;3413;47.680;9.166;2023-04-26T18:12:46;18.10;86.40
6752;DHT22;3413;47.680;9.166;2023-04-26T18:17:48;18.00;86.30
6752;DHT22;3413;47.680;9.166;2023-04-26T18:22:50;17.90;86.30
6752;DHT22;3413;47.680;9.166;2023-04-26T18:27:52;17.90;86.10
6752;DHT22;3413;47.680;9.166;2023-04-26T18:32:54;17.80;86.00
6752;DHT22;3413;47.680;9.166;2023-04-26T18:37:56;17.70;86.00
6752;DHT22;3413;47.680;9.166;2023-04-26T18:42:58;17.70;86.00
6752;DHT22;3413;47.680;9.166;2023-04-26T18:48:00;17.50;85.90
6752;DHT22;3413;47.680;9.166;2023-04-26T18:53:02;17.50;86.00
6752;DHT22;3413;47.680;9.166;2023-04-26T18:58:04;17.40;85.90
6752;DHT22;3413;47.680;9.166;2023-04-26T19:03:06;17.20;85.90
6752;DHT22;3413;47.680;9.166;2023-04-26T19:08:08;17.10;85.80
6752;DHT22;3413;47.680;9.166;2023-04-26T19:13:10;17.10;85.80
6752;DHT22;3413;47.680;9.166;2023-04-26T19:18:12;17.10;85.70
6752;DHT22;3413;47.680;9.166;2023-04-26T19:23:14;17.00;85.80
6752;DHT22;3413;47.680;9.166;2023-04-26T19:28:16;17.00;85.80
6752;DHT22;3413;47.680;9.166;2023-04-26T19:33:22;17.00;85.80
6752;DHT22;3413;47.680;9.166;2023-04-26T19:38:38;17.10;85.90
6752;DHT22;3413;47.680;9.166;2023-04-26T19:43:45;17.10;85.90
6752;DHT22;3413;47.680;9.166;2023-04-26T19:48:48;17.10;85.90
6752;DHT22;3413;47.680;9.166;2023-04-26T19:53:49;17.10;86.00
6752;DHT22;3413;47.680;9.166;2023-04-26T19:58:51;17.10;86.00
6752;DHT22;3413;47.680;9.166;2023-04-26T20:03:53;17.00;85.90
6752;DHT22;3413;47.680;9.166;2023-04-26T20:08:55;17.00;86.00
6752;DHT22;3413;47.680;9.166;2023-04-26T20:13:57;17.00;86.00
6752;DHT22;3413;47.680;9.166;2023-04-26T20:18:59;17.00;86.00
6752;DHT22;3413;47.680;9.166;2023-04-26T20:24:02;16.80;86.10
6752;DHT22;3413;47.680;9.166;2023-04-26T20:29:03;16.70;86.00
6752;DHT22;3413;47.680;9.166;2023-04-26T20:34:06;16.70;86.00
6752;DHT22;3413;47.680;9.166;2023-04-26T20:39:08;16.70;85.90
6752;DHT22;3413;47.680;9.166;2023-04-26T20:44:12;16.50;86.00
6752;DHT22;3413;47.680;9.166;2023-04-26T20:49:14;16.40;86.00
6752;DHT22;3413;47.680;9.166;2023-04-26T20:54:16;16.40;85.90
6752;DHT22;3413;47.680;9.166;2023-04-26T20:59:18;16.40;86.00
6752;DHT22;3413;47.680;9.166;2023-04-26T21:04:20;16.30;85.80
6752;DHT22;3413;47.680;9.166;2023-04-26T21:09:22;16.20;85.90
6752;DHT22;3413;47.680;9.166;2023-04-26T21:14:24;16.10;85.80
6752;DHT22;3413;47.680;9.166;2023-04-26T21:19:26;16.00;85.90
6752;DHT22;3413;47.680;9.166;2023-04-26T21:24:28;16.00;85.80
6752;DHT22;3413;47.680;9.166;2023-04-26T21:29:30;16.10;85.70
6752;DHT22;3413;47.680;9.166;2023-04-26T21:34:35;16.10;85.60
6752;DHT22;3413;47.680;9.166;2023-04-26T21:39:37;16.10;85.60
6752;DHT22;3413;47.680;9.166;2023-04-26T21:44:39;16.20;85.70
6752;DHT22;3413;47.680;9.166;2023-04-26T21:49:41;16.20;85.70
6752;DHT22;3413;47.680;9.166;2023-04-26T21:54:43;16.20;85.70
6752;DHT22;3413;47.680;9.166;2023-04-26T21:59:45;16.20;85.70
6752;DHT22;3413;47.680;9.166;2023-04-26T22:04:47;16.20;85.70
6752;DHT22;3413;47.680;9.166;2023-04-26T22:09:49;16.20;85.70
6752;DHT22;3413;47.680;9.166;2023-04-26T22:14:51;16.20;85.70
6752;DHT22;3413;47.680;9.166;2023-04-26T22:19:53;16.10;85.80
6752;DHT22;3413;47.680;9.166;2023-04-26T22:24:56;16.10;85.70
6752;DHT22;3413;47.680;9.166;2023-04-26T22:29:58;16.10;85.80
6752;DHT22;3413;47.680;9.166;2023-04-26T22:35:09;16.00;85.80
6752;DHT22;3413;47.680;9.166;2023-04-26T22:40:15;16.00;85.80
6752;DHT22;3413;47.680;9.166;2023-04-26T22:45:17;15.90;85.80
6752;DHT22;3413;47.680;9.166;2023-04-26T22:50:19;15.90;85.90
6752;DHT22;3413;47.680;9.166;2023-04-26T22:55:21;15.90;85.90
6752;DHT22;3413;47.680;9.166;2023-04-26T23:00:23;15.80;85.90
6752;DHT22;3413;47.680;9.166;2023-04-26T23:05:26;15.80;86.10
6752;DHT22;3413;47.680;9.166;2023-04-26T23:10:28;15.80;86.10
6752;DHT22;3413;47.680;9.166;2023-04-26T23:15:30;15.80;86.10
6752;DHT22;3413;47.680;9.166;2023-04-26T23:20:32;15.70;86.00
6752;DHT22;3413;47.680;9.166;2023-04-26T23:25:34;15.60;86.00
6752;DHT22;3413;47.680;9.166;2023-04-26T23:30:36;15.50;86.00
6752;DHT22;3413;47.680;9.166;2023-04-26T23:35:41;15.30;86.20
6752;DHT22;3413;47.680;9.166;2023-04-26T23:40:43;15.20;86.20
6752;DHT22;3413;47.680;9.166;2023-04-26T23:45:46;15.20;86.30
6752;DHT22;3413;47.680;9.166;2023-04-26T23:50:48;15.10;86.20
6752;DHT22;3413;47.680;9.166;2023-04-26T23:55:50;15.10;86.20
